Time;durP1;ratioP1;P1;durP2;ratioP2;P2;SDS_P1;SDS_P2;PMS_P1;PMS_P2;Temp;Humidity;BMP_temperature;BMP_pressure;BME280_temperature;BME280_humidity;BME280_pressure;Samples;Min_cycle;Max_cycle;Signal;HPM_P1;HPM_P2
2022/10/02 00:00:04;;;;;;;7.07;1.40;;;;;;;13.51;82.50;99846.45;1432034;90;22271;-75
2022/10/02 00:02:52;;;;;;;3.90;1.80;;;;;;;13.49;82.80;99855.95;1451198;89;21385;-74
2022/10/02 00:05:26;;;;;;;5.53;1.50;;;;;;;13.45;83.56;99854.64;1420540;91;21386;-75
2022/10/02 00:08:07;;;;;;;4.67;1.50;;;;;;;13.42;84.27;99858.99;1434458;88;21428;-75
2022/10/02 00:11:02;;;;;;;4.37;1.20;;;;;;;13.36;84.30;99861.55;1425967;91;22383;-75
2022/10/02 00:13:34;;;;;;;1.73;1.33;;;;;;;13.28;82.37;99867.24;1439213;88;21922;-75
2022/10/02 00:16:04;;;;;;;4.17;1.40;;;;;;;13.30;82.75;99877.71;1442931;90;21362;-76
2022/10/02 00:18:37;;;;;;;1.47;1.37;;;;;;;13.28;83.16;99878.37;1433655;90;21539;-76
2022/10/02 00:21:55;;;;;;;3.10;1.20;;;;;;;13.25;82.11;99879.56;1444013;90;21398;-76
2022/10/02 00:24:27;;;;;;;1.17;1.03;;;;;;;13.27;83.21;99876.73;1449405;89;22463;-76
2022/10/02 00:27:05;;;;;;;2.33;1.00;;;;;;;13.26;81.69;99869.75;1448222;90;22412;-75
2022/10/02 00:29:52;;;;;;;1.43;1.00;;;;;;;13.17;79.18;99851.69;1434910;90;21612;-75
2022/10/02 00:32:37;;;;;;;5.50;1.20;;;;;;;13.16;78.64;99871.81;1451783;90;21584;-75
2022/10/02 00:35:32;;;;;;;2.97;0.90;;;;;;;13.10;78.85;99875.49;1437618;90;21414;-75
2022/10/02 00:38:36;;;;;;;1.07;0.97;;;;;;;13.06;79.30;99885.31;1436620;89;21407;-77
2022/10/02 00:41:23;;;;;;;8.73;1.10;;;;;;;12.96;78.92;99885.55;1443759;90;21499;-76
2022/10/02 00:44:00;;;;;;;1.20;1.10;;;;;;;12.92;79.32;99888.72;1431527;90;21442;-75
2022/10/02 00:47:04;;;;;;;3.37;0.90;;;;;;;12.91;79.41;99881.77;1447227;89;22354;-75
2022/10/02 00:50:17;;;;;;;1.73;0.90;;;;;;;12.88;79.56;99879.78;1420908;90;21369;-76
2022/10/02 00:52:49;;;;;;;3.80;1.10;;;;;;;12.83;79.04;99885.30;1437616;90;22213;-78
2022/10/02 00:55:54;;;;;;;3.23;0.90;;;;;;;12.79;79.96;99886.16;1451751;90;22272;-76
2022/10/02 00:58:25;;;;;;;2.17;1.30;;;;;;;12.78;80.06;99895.64;1406761;91;21450;-77
2022/10/02 01:01:24;;;;;;;2.00;1.00;;;;;;;12.72;79.64;99904.30;1437806;90;22440;-77
2022/10/02 01:03:53;;;;;;;1.43;1.00;;;;;;;12.70;80.34;99902.31;1400198;92;21674;-76
2022/10/02 01:06:23;;;;;;;5.33;1.20;;;;;;;12.61;80.38;99900.20;1396344;92;22426;-76
2022/10/02 01:08:53;;;;;;;4.30;1.10;;;;;;;12.54;80.49;99904.03;1408376;92;21669;-77
2022/10/02 01:11:21;;;;;;;5.07;1.10;;;;;;;12.49;81.56;99907.73;1414076;92;22357;-76
2022/10/02 01:13:48;;;;;;;2.63;1.57;;;;;;;12.43;82.37;99919.04;1400552;92;22541;-77
2022/10/02 01:16:15;;;;;;;5.33;1.27;;;;;;;12.38;83.53;99916.88;1423061;91;21560;-78
2022/10/02 01:18:46;;;;;;;1.97;1.10;;;;;;;12.34;83.51;99921.37;1413596;91;21607;-76
2022/10/02 01:21:21;;;;;;;8.37;1.50;;;;;;;12.33;83.15;99917.89;1426567;91;22227;-75
2022/10/02 01:24:08;;;;;;;1.77;0.90;;;;;;;12.33;83.06;99927.17;1429289;91;21456;-76
2022/10/02 01:26:34;;;;;;;1.40;1.20;;;;;;;12.32;83.30;99927.37;1426732;91;21412;-76
2022/10/02 01:29:00;;;;;;;4.50;1.47;;;;;;;12.30;83.11;99925.37;1432921;91;21457;-76
2022/10/02 01:31:27;;;;;;;4.93;1.00;;;;;;;12.26;83.79;99926.73;1415357;91;22524;-76
2022/10/02 01:33:53;;;;;;;1.37;1.27;;;;;;;12.26;84.40;99939.99;1387397;92;22352;-76
2022/10/02 01:36:20;;;;;;;3.00;1.07;;;;;;;12.27;84.26;99936.33;1432099;91;21474;-76
2022/10/02 01:38:47;;;;;;;1.27;1.13;;;;;;;12.29;84.48;99938.33;1442374;90;21392;-75
2022/10/02 01:41:13;;;;;;;2.70;1.03;;;;;;;12.31;84.56;99940.28;1427180;90;21370;-75
2022/10/02 01:43:45;;;;;;;0.93;0.80;;;;;;;12.32;84.32;99939.31;1430979;91;21407;-76
2022/10/02 01:46:23;;;;;;;1.63;1.20;;;;;;;12.31;84.42;99937.63;1426877;90;21650;-75
2022/10/02 01:49:02;;;;;;;1.53;1.13;;;;;;;12.30;84.57;99947.92;1443441;90;22070;-75
2022/10/02 01:51:50;;;;;;;1.63;1.30;;;;;;;12.26;84.37;99951.93;1428051;90;21511;-74
2022/10/02 01:54:57;;;;;;;4.97;1.13;;;;;;;12.21;84.92;99953.76;1436033;90;21487;-74
2022/10/02 01:57:55;;;;;;;2.27;1.07;;;;;;;12.22;84.85;99973.15;1440687;90;21533;-75
2022/10/02 02:00:25;;;;;;;3.63;1.03;;;;;;;12.23;85.27;99973.47;1434414;90;21555;-75
2022/10/02 02:03:08;;;;;;;4.93;1.10;;;;;;;12.25;85.14;99978.12;1450656;90;21362;-75
2022/10/02 02:06:01;;;;;;;2.07;1.07;;;;;;;12.26;85.19;99984.59;1455123;89;21399;-76
2022/10/02 02:09:03;;;;;;;3.23;1.90;;;;;;;12.30;85.33;99987.22;1422891;91;21466;-76
2022/10/02 02:11:30;;;;;;;6.43;1.20;;;;;;;12.31;85.13;99991.52;1426198;91;21609;-76
2022/10/02 02:14:17;;;;;;;3.60;1.33;;;;;;;12.30;85.04;100000.49;1432691;89;21495;-76
2022/10/02 02:16:48;;;;;;;2.63;1.40;;;;;;;12.30;85.30;99993.03;1441701;90;21414;-77
2022/10/02 02:19:28;;;;;;;1.67;1.00;;;;;;;12.32;85.30;99997.69;1460237;90;21447;-77
2022/10/02 02:22:09;;;;;;;3.55;0.98;;;;;;;12.31;85.77;99999.98;1455197;90;21392;-77
2022/10/02 02:24:46;;;;;;;2.10;1.10;;;;;;;12.35;85.22;99997.34;1447898;89;22071;-77
2022/10/02 02:27:17;;;;;;;1.20;1.00;;;;;;;12.36;85.16;99989.70;1430195;89;21458;-77
2022/10/02 02:29:47;;;;;;;1.37;1.20;;;;;;;12.34;84.76;99988.56;1430095;91;21587;-78
2022/10/02 02:32:17;;;;;;;3.70;1.20;;;;;;;12.31;84.39;99992.03;1446151;90;22343;-77
2022/10/02 02:34:55;;;;;;;5.90;1.80;;;;;;;12.25;84.36;99993.53;1439329;90;21422;-77
2022/10/02 02:37:25;;;;;;;2.17;1.27;;;;;;;12.16;84.54;99995.38;1429242;90;21510;-77
2022/10/02 02:39:56;;;;;;;2.00;0.93;;;;;;;12.09;84.87;100005.02;1418605;91;22111;-80
2022/10/02 02:42:27;;;;;;;1.43;0.87;;;;;;;12.03;84.94;99998.23;1438127;90;21480;-79
2022/10/02 02:44:58;;;;;;;1.60;1.00;;;;;;;11.99;85.32;100009.65;1434892;91;22428;-78
2022/10/02 02:47:45;;;;;;;3.53;1.37;;;;;;;11.92;85.52;100019.28;1434381;90;21539;-79
2022/10/02 02:50:19;;;;;;;3.33;0.93;;;;;;;11.88;85.39;100023.24;1449368;90;21584;-79
2022/10/02 02:53:03;;;;;;;1.80;1.10;;;;;;;11.85;85.47;100030.17;1459063;90;21406;-79
2022/10/02 02:55:49;;;;;;;1.70;1.30;;;;;;;11.82;85.53;100031.83;1444940;89;21435;-79
2022/10/02 02:58:54;;;;;;;2.77;1.53;;;;;;;11.78;85.47;100039.80;1440343;89;21414;-79
2022/10/02 03:01:21;;;;;;;2.57;1.67;;;;;;;11.72;85.53;100042.11;1435336;90;21615;-77
2022/10/02 03:03:51;;;;;;;2.90;2.03;;;;;;;11.69;85.81;100041.11;1450343;90;22408;-77
2022/10/02 03:06:36;;;;;;;2.00;1.17;;;;;;;11.69;85.98;100044.27;1455286;90;22023;-77
2022/10/02 03:09:11;;;;;;;7.03;1.20;;;;;;;11.67;86.14;100047.56;1452515;89;21502;-77
2022/10/02 03:12:15;;;;;;;5.33;1.40;;;;;;;11.66;86.02;100057.34;1460988;90;21602;-77
2022/10/02 03:15:11;;;;;;;1.80;1.37;;;;;;;11.62;85.98;100059.97;1435445;89;21318;-77
2022/10/02 03:17:58;;;;;;;7.40;1.77;;;;;;;11.57;86.26;100070.26;1427239;91;21554;-78
2022/10/02 03:20:38;;;;;;;5.30;1.50;;;;;;;11.46;87.09;100075.86;1431061;91;22071;-78
2022/10/02 03:23:37;;;;;;;5.00;2.30;;;;;;;11.35;87.45;100088.08;1435715;91;21517;-78
2022/10/02 03:26:11;;;;;;;8.93;3.70;;;;;;;11.28;87.64;100088.73;1432501;91;21548;-78
2022/10/02 03:28:45;;;;;;;13.00;3.97;;;;;;;11.23;88.03;100098.97;1441073;90;21311;-78
2022/10/02 03:31:14;;;;;;;7.07;2.60;;;;;;;11.21;88.37;100092.16;1451493;90;21333;-77
2022/10/02 03:33:42;;;;;;;10.33;2.60;;;;;;;11.22;88.60;100099.11;1449170;89;21481;-79
2022/10/02 03:36:13;;;;;;;6.23;2.20;;;;;;;11.21;88.62;100098.28;1435553;90;21318;-80
2022/10/02 03:38:41;;;;;;;5.40;1.45;;;;;;;11.20;88.56;100103.76;1432601;90;22449;-80
2022/10/02 03:41:07;;;;;;;2.07;1.30;;;;;;;11.17;88.82;100107.55;1432901;90;21524;-79
2022/10/02 03:43:34;;;;;;;1.93;1.40;;;;;;;11.14;89.89;100109.20;1433679;91;21362;-78
2022/10/02 03:46:00;;;;;;;2.50;1.30;;;;;;;11.11;89.82;100107.37;1431004;90;21531;-79
2022/10/02 03:48:26;;;;;;;9.27;1.10;;;;;;;11.05;90.03;100116.28;1452558;90;21370;-79
2022/10/02 03:50:52;;;;;;;1.27;1.17;;;;;;;11.04;90.12;100125.69;1436946;90;22169;-79
2022/10/02 03:53:23;;;;;;;9.80;1.90;;;;;;;11.00;90.12;100130.98;1439753;90;21296;-79
2022/10/02 03:56:04;;;;;;;2.37;1.47;;;;;;;10.95;90.03;100131.94;1452617;90;21377;-79
2022/10/02 03:58:33;;;;;;;2.37;1.50;;;;;;;10.89;89.98;100138.69;1411046;89;21428;-79
2022/10/02 04:01:20;;;;;;;1.17;1.00;;;;;;;10.83;89.94;100128.23;1442456;90;21547;-78
2022/10/02 04:03:57;;;;;;;2.60;1.33;;;;;;;10.79;90.05;100141.95;1451559;89;21480;-78
2022/10/02 04:06:47;;;;;;;4.10;1.60;;;;;;;10.72;90.79;100133.78;1440674;89;21489;-78
2022/10/02 04:09:45;;;;;;;4.80;1.30;;;;;;;10.67;91.08;100139.20;1434952;91;21481;-78
2022/10/02 04:12:20;;;;;;;9.00;1.03;;;;;;;10.60;91.23;100141.15;1438591;91;21585;-78
2022/10/02 04:15:09;;;;;;;2.10;1.30;;;;;;;10.56;91.93;100152.22;1430427;91;21391;-78
2022/10/02 04:18:00;;;;;;;3.40;1.00;;;;;;;10.51;91.62;100153.98;1440429;90;22359;-78
2022/10/02 04:20:43;;;;;;;4.90;1.72;;;;;;;10.48;91.84;100157.44;1429510;91;22359;-77
2022/10/02 04:23:27;;;;;;;4.17;1.93;;;;;;;10.39;92.29;100161.34;1431260;91;21546;-77
2022/10/02 04:26:04;;;;;;;1.77;1.30;;;;;;;10.35;92.20;100159.97;1438633;90;21538;-77
2022/10/02 04:28:41;;;;;;;7.00;1.33;;;;;;;10.33;92.22;100169.89;1447202;89;21434;-77
2022/10/02 04:31:11;;;;;;;3.60;1.60;;;;;;;10.27;92.44;100170.97;1448823;90;21523;-77
2022/10/02 04:33:39;;;;;;;2.20;1.70;;;;;;;10.24;92.53;100169.45;1430345;90;21370;-77
2022/10/02 04:36:23;;;;;;;2.23;1.23;;;;;;;10.26;92.59;100174.08;1434131;90;21341;-77
2022/10/02 04:39:30;;;;;;;7.40;1.93;;;;;;;10.28;92.96;100168.68;1406268;90;21399;-76
2022/10/02 04:42:08;;;;;;;2.13;1.63;;;;;;;10.35;93.24;100168.40;1412288;89;21518;-79
2022/10/02 04:44:58;;;;;;;3.23;1.70;;;;;;;10.39;93.60;100177.21;1430148;90;22236;-77
2022/10/02 04:47:48;;;;;;;4.57;1.40;;;;;;;10.46;93.72;100183.21;1424693;91;22323;-77
2022/10/02 04:50:57;;;;;;;5.73;1.60;;;;;;;10.51;93.72;100188.39;1437921;90;21576;-77
2022/10/02 04:54:07;;;;;;;2.37;1.53;;;;;;;10.56;93.67;100187.94;1454954;90;21382;-78
2022/10/02 04:56:51;;;;;;;7.77;1.93;;;;;;;10.59;93.92;100186.31;1452761;90;22101;-77
2022/10/02 04:59:55;;;;;;;2.10;1.83;;;;;;;10.65;93.98;100188.83;1436514;90;21325;-78
2022/10/02 05:02:41;;;;;;;6.43;2.53;;;;;;;10.73;94.12;100191.52;1455423;90;22384;-77
2022/10/02 05:05:34;;;;;;;4.53;2.63;;;;;;;10.79;93.91;100189.10;1443210;89;21540;-78
2022/10/02 05:08:41;;;;;;;8.63;2.50;;;;;;;10.82;93.71;100183.50;1435586;90;22309;-79
2022/10/02 05:11:47;;;;;;;5.17;3.03;;;;;;;10.87;93.49;100175.57;1421786;90;21496;-79
2022/10/02 05:14:28;;;;;;;3.53;2.30;;;;;;;10.88;93.50;100174.60;1386034;94;22186;-80
2022/10/02 05:17:39;;;;;;;4.80;3.00;;;;;;;10.88;93.29;100169.31;1440566;89;22366;-80
2022/10/02 05:20:16;;;;;;;3.87;2.12;;;;;;;10.87;94.09;100164.98;1423943;91;21584;-80
2022/10/02 05:23:15;;;;;;;8.03;2.47;;;;;;;10.91;93.83;100155.25;1434080;90;21554;-79
2022/10/02 05:26:02;;;;;;;8.13;2.70;;;;;;;10.96;93.87;100149.47;1423585;90;21863;-78
2022/10/02 05:28:55;;;;;;;4.20;2.60;;;;;;;11.03;93.56;100155.82;1443742;90;21514;-78
2022/10/02 05:31:39;;;;;;;3.53;2.37;;;;;;;11.09;93.07;100163.13;1432355;90;21392;-78
2022/10/02 05:34:34;;;;;;;4.83;3.27;;;;;;;11.16;93.07;100164.64;1440301;90;21369;-79
2022/10/02 05:37:32;;;;;;;6.17;2.60;;;;;;;11.23;92.92;100178.44;1431038;90;22435;-79
2022/10/02 05:40:16;;;;;;;10.07;4.80;;;;;;;11.32;93.09;100186.43;1439660;90;22161;-79
2022/10/02 05:42:56;;;;;;;6.20;4.03;;;;;;;11.41;93.44;100205.34;1431886;90;21281;-78
2022/10/02 05:45:44;;;;;;;7.35;3.92;;;;;;;11.51;93.11;100205.57;1434708;90;22837;-78
2022/10/02 05:48:21;;;;;;;8.17;3.43;;;;;;;11.60;92.86;100207.77;1432110;91;22420;-77
2022/10/02 05:50:53;;;;;;;9.30;3.30;;;;;;;11.68;92.54;100201.17;1428600;91;21616;-77
2022/10/02 05:53:49;;;;;;;6.40;3.63;;;;;;;11.77;92.20;100198.52;1429339;90;21532;-77
2022/10/02 05:56:24;;;;;;;5.90;4.13;;;;;;;11.86;92.23;100196.28;1440269;90;21465;-77
2022/10/02 05:58:56;;;;;;;3.80;2.87;;;;;;;11.98;92.16;100204.27;1454359;89;21318;-78
2022/10/02 06:01:29;;;;;;;3.57;3.10;;;;;;;12.08;91.65;100214.22;1450798;89;21378;-77
2022/10/02 06:04:19;;;;;;;13.73;5.17;;;;;;;12.19;91.02;100209.11;1433267;90;21999;-78
2022/10/02 06:06:54;;;;;;;3.70;3.13;;;;;;;12.28;90.53;100217.91;1441982;90;21266;-77
2022/10/02 06:09:32;;;;;;;6.87;3.30;;;;;;;12.34;89.23;100212.80;1445019;90;21311;-77
2022/10/02 06:12:05;;;;;;;3.47;2.70;;;;;;;12.43;88.90;100218.95;1433415;91;21377;-80
2022/10/02 06:14:37;;;;;;;6.63;3.20;;;;;;;12.44;88.38;100224.58;1433952;91;21459;-79
2022/10/02 06:17:35;;;;;;;4.00;3.17;;;;;;;12.45;88.22;100235.52;1420700;91;21570;-78
2022/10/02 06:20:15;;;;;;;3.23;2.93;;;;;;;12.45;88.37;100230.20;1456440;90;21518;-78
2022/10/02 06:22:51;;;;;;;;;;;;;;;12.43;87.88;100229.56;1449792;89;21584;-79
2022/10/02 06:25:35;;;;;;;5.00;3.00;;;;;;;12.39;87.36;100225.55;1452763;89;20947;-79
2022/10/02 06:28:39;;;;;;;5.53;2.73;;;;;;;12.38;87.92;100231.88;1445393;89;21451;-79
2022/10/02 06:31:32;;;;;;;6.47;3.30;;;;;;;12.37;87.79;100236.83;1453118;90;21399;-79
2022/10/02 06:33:58;;;;;;;9.00;3.43;;;;;;;12.42;88.33;100237.17;1447230;90;21591;-80
2022/10/02 06:36:44;;;;;;;2.70;2.30;;;;;;;12.56;88.53;100245.81;1432576;90;21289;-79
2022/10/02 06:39:37;;;;;;;4.17;3.50;;;;;;;12.74;88.91;100244.82;1444583;90;21458;-78
2022/10/02 06:42:25;;;;;;;3.80;3.30;;;;;;;12.84;87.52;100254.80;1455664;90;21318;-79
2022/10/02 06:44:57;;;;;;;4.50;3.20;;;;;;;13.02;87.35;100259.92;1452930;89;21326;-78
2022/10/02 06:47:53;;;;;;;6.97;3.40;;;;;;;13.08;86.63;100256.09;1434764;90;22397;-78
2022/10/02 06:50:37;;;;;;;4.70;3.57;;;;;;;13.12;86.30;100251.77;1452587;89;22159;-79
2022/10/02 06:53:26;;;;;;;4.40;2.93;;;;;;;13.28;86.65;100257.09;1425194;91;21340;-79
2022/10/02 06:56:33;;;;;;;3.93;3.10;;;;;;;13.41;85.96;100256.08;1428963;89;21458;-79
2022/10/02 06:59:20;;;;;;;4.70;3.43;;;;;;;13.57;84.99;100262.34;1450871;90;21362;-78
2022/10/02 07:02:00;;;;;;;5.00;3.60;;;;;;;13.79;85.15;100257.61;1400649;91;22375;-84
2022/10/02 07:05:07;;;;;;;2.42;2.22;;;;;;;14.14;86.22;100260.77;1441695;90;21451;-82
2022/10/02 07:08:10;;;;;;;3.33;2.03;;;;;;;14.14;86.22;100260.77;1444926;89;21510;-80
2022/10/02 07:10:45;;;;;;;2.50;1.87;;;;;;;14.33;82.40;100253.67;1454436;90;22342;-82
2022/10/02 07:13:22;;;;;;;3.67;2.20;;;;;;;14.56;82.28;100259.55;1449102;90;22008;-81
2022/10/02 07:16:22;;;;;;;3.43;2.30;;;;;;;14.72;80.48;100259.41;1447923;90;21591;-81
2022/10/02 07:19:16;;;;;;;5.63;2.10;;;;;;;14.93;80.92;100259.23;1438959;88;22574;-83
2022/10/02 07:22:04;;;;;;;3.53;1.70;;;;;;;15.14;78.96;100258.56;1438273;90;21620;-80
2022/10/02 07:24:59;;;;;;;7.43;1.87;;;;;;;15.22;76.54;100261.98;1440420;90;21362;-82
2022/10/02 07:27:43;;;;;;;10.73;2.10;;;;;;;15.25;76.00;100266.95;1433395;89;21392;-82
2022/10/02 07:30:13;;;;;;;2.93;1.57;;;;;;;15.24;74.02;100265.27;1448560;90;21529;-84
2022/10/02 07:33:14;;;;;;;2.02;1.52;;;;;;;15.31;75.02;100264.88;1374609;89;22391;-82
2022/10/02 07:36:05;;;;;;;3.33;1.55;;;;;;;15.38;73.68;100269.48;1434657;90;21458;-82
2022/10/02 07:39:08;;;;;;;4.90;1.70;;;;;;;15.58;75.38;100275.41;1435803;90;21333;-84
2022/10/02 07:42:04;;;;;;;3.83;1.13;;;;;;;15.69;72.76;100274.16;1435729;90;21392;-81
2022/10/02 07:45:03;;;;;;;4.00;1.30;;;;;;;15.79;71.66;100273.87;1436266;91;22550;-81
2022/10/02 07:47:44;;;;;;;3.00;1.17;;;;;;;15.86;71.02;100273.98;1432074;91;21354;-79
2022/10/02 07:50:20;;;;;;;;;;;;;;;15.90;69.16;100277.91;1435007;90;21413;-82
2022/10/02 07:53:24;;;;;;;1.67;1.07;;;;;;;15.98;67.64;100278.64;1452687;90;20564;-82
2022/10/02 07:55:55;;;;;;;2.70;1.40;;;;;;;16.04;69.27;100277.06;1444689;89;21400;-82
2022/10/02 07:58:45;;;;;;;1.70;1.37;;;;;;;16.11;69.40;100278.47;1401762;89;21273;-82
2022/10/02 08:01:16;;;;;;;4.70;1.60;;;;;;;16.23;68.64;100284.49;1443801;88;21384;-83
2022/10/02 08:03:57;;;;;;;4.30;1.33;;;;;;;16.32;68.49;100289.73;1433899;88;21607;-84
2022/10/02 08:06:23;;;;;;;;;;;;;;;16.31;66.46;100286.72;1481275;88;21348;-83
2022/10/02 08:09:18;;;;;;;4.07;1.10;;;;;;;16.24;64.39;100293.33;1480582;88;20310;-82
2022/10/02 08:11:58;;;;;;;3.90;1.50;;;;;;;16.33;67.68;100287.36;1476439;88;21495;-84
2022/10/02 08:14:44;;;;;;;2.43;1.13;;;;;;;16.39;66.18;100285.27;1458700;88;21523;-83
2022/10/02 08:17:37;;;;;;;2.07;1.33;;;;;;;16.48;67.38;100293.48;1464842;88;21492;-83
2022/10/02 08:20:29;;;;;;;6.00;1.50;;;;;;;16.59;67.20;100296.98;1423613;89;21362;-84
2022/10/02 08:23:18;;;;;;;2.07;1.40;;;;;;;16.67;67.49;100295.53;1533360;88;21252;-84
2022/10/02 08:26:05;;;;;;;1.80;1.00;;;;;;;16.80;66.15;100298.04;1505591;89;21413;-79
2022/10/02 08:28:52;;;;;;;1.43;1.03;;;;;;;16.72;64.63;100304.84;1509801;90;21377;-81
2022/10/02 08:31:19;;;;;;;5.83;1.33;;;;;;;16.81;66.16;100303.72;1446769;90;21287;-80
2022/10/02 08:33:45;;;;;;;2.83;1.20;;;;;;;16.75;66.95;100308.47;1427654;91;21392;-80
2022/10/02 08:36:51;;;;;;;3.03;1.70;;;;;;;16.73;67.26;100308.64;1427708;91;22168;-81
2022/10/02 08:40:01;;;;;;;2.20;1.37;;;;;;;16.61;66.12;100320.86;1444161;90;21294;-82
2022/10/02 08:43:07;;;;;;;2.73;1.80;;;;;;;16.42;66.42;100326.29;1454289;90;21599;-80
2022/10/02 08:46:06;;;;;;;6.93;2.13;;;;;;;16.27;66.87;100317.49;1442489;90;21437;-82
2022/10/02 08:49:12;;;;;;;3.90;1.70;;;;;;;16.37;67.42;100318.86;1439750;89;22002;-80
2022/10/02 08:52:05;;;;;;;5.80;1.90;;;;;;;16.55;66.90;100322.44;1458356;85;21722;-82
2022/10/02 08:54:55;;;;;;;3.17;1.40;;;;;;;16.66;66.48;100311.77;1462577;87;22453;-81
2022/10/02 08:58:11;;;;;;;2.90;1.52;;;;;;;16.74;66.34;100312.14;1464213;86;21927;-82
2022/10/02 09:01:06;;;;;;;6.47;1.97;;;;;;;16.90;65.60;100311.92;1451591;88;21582;-83
2022/10/02 09:04:14;;;;;;;3.53;1.47;;;;;;;17.01;65.33;100322.11;1463953;88;21512;-84
2022/10/02 09:07:04;;;;;;;1.23;1.00;;;;;;;17.11;64.71;100325.27;1448913;89;22572;-84
2022/10/02 09:09:57;;;;;;;1.52;1.30;;;;;;;17.24;64.91;100329.09;1456646;89;21567;-85
2022/10/02 09:13:01;;;;;;;3.98;1.25;;;;;;;17.45;64.70;100329.55;1437705;88;21345;-85
2022/10/02 09:16:22;;;;;;;1.45;1.07;;;;;;;17.73;64.33;100327.68;1464205;88;23303;-85
2022/10/02 09:19:22;;;;;;;4.25;0.90;;;;;;;17.90;62.10;100333.58;1474043;88;21537;-85
2022/10/02 09:21:55;;;;;;;9.13;1.10;;;;;;;17.96;61.53;100330.10;1460014;88;21375;-84
2022/10/02 09:24:43;;;;;;;2.67;1.47;;;;;;;18.09;61.05;100324.49;1471759;88;21465;-85
2022/10/02 09:27:41;;;;;;;4.25;1.10;;;;;;;18.31;62.20;100324.69;1470422;88;22492;-85
2022/10/02 09:30:27;;;;;;;1.50;1.40;;;;;;;18.54;60.60;100332.91;1463366;88;21414;-85
2022/10/02 09:33:46;;;;;;;1.70;0.90;;;;;;;18.65;59.45;100336.34;1457318;88;21383;-84
2022/10/02 09:36:44;;;;;;;3.60;1.00;;;;;;;18.52;59.10;100329.59;1479987;88;21376;-85
2022/10/02 09:40:07;;;;;;;1.30;0.90;;;;;;;18.54;57.69;100319.51;1461571;88;21348;-82
2022/10/02 09:43:11;;;;;;;1.42;1.17;;;;;;;18.69;58.84;100318.81;1459859;87;21640;-84
2022/10/02 09:46:11;;;;;;;7.72;1.98;;;;;;;19.03;58.70;100315.70;1447984;89;22454;-85
2022/10/02 09:49:19;;;;;;;1.50;0.90;;;;;;;19.16;56.83;100313.00;1434656;89;22534;-81
2022/10/02 09:51:56;;;;;;;1.22;0.90;;;;;;;19.20;56.54;100312.91;1458654;87;21455;-83
2022/10/02 09:55:04;;;;;;;1.35;1.02;;;;;;;19.16;57.11;100304.95;1461225;87;21504;-82
2022/10/02 09:57:51;;;;;;;4.00;1.20;;;;;;;19.09;54.52;100301.45;1464072;89;21761;-82
2022/10/02 10:00:59;;;;;;;3.62;1.30;;;;;;;19.28;56.55;100300.63;1479396;88;21394;-84
2022/10/02 10:04:07;;;;;;;3.75;2.00;;;;;;;19.64;56.57;100302.02;1455245;87;21524;-85
2022/10/02 10:07:17;;;;;;;2.10;1.62;;;;;;;19.92;55.88;100303.62;1471973;87;21478;-85
2022/10/02 10:10:04;;;;;;;4.50;1.20;;;;;;;20.00;53.49;100298.03;1448064;89;22512;-86
2022/10/02 10:13:11;;;;;;;3.12;1.05;;;;;;;20.09;53.23;100306.15;1475154;87;22379;-83
2022/10/02 10:16:00;;;;;;;1.22;0.80;;;;;;;20.17;54.90;100304.56;1469460;88;21493;-84
2022/10/02 10:19:05;;;;;;;4.67;1.00;;;;;;;20.25;51.18;100298.11;1469231;87;22240;-87
2022/10/02 10:21:54;;;;;;;0.72;0.65;;;;;;;20.44;53.83;100303.08;1467652;88;21375;-85
2022/10/02 10:25:04;;;;;;;1.10;0.93;;;;;;;20.42;52.57;100299.78;1466349;87;21482;-83
2022/10/02 10:27:48;;;;;;;4.12;1.12;;;;;;;20.04;52.04;100296.03;1510311;89;21337;-84
2022/10/02 10:30:55;;;;;;;2.20;0.70;;;;;;;19.95;53.64;100300.52;1436010;89;21560;-84
2022/10/02 10:33:48;;;;;;;0.93;0.70;;;;;;;19.95;53.64;100300.52;1457031;87;21494;-84
2022/10/02 10:40:14;;;;;;;2.98;1.02;;;;;;;21.03;53.02;100283.56;1474586;87;21313;-85
2022/10/02 10:43:02;;;;;;;2.02;0.75;;;;;;;21.37;51.11;100284.95;1476385;87;21314;-85
2022/10/02 10:46:05;;;;;;;0.70;0.50;;;;;;;21.63;49.78;100283.32;1474127;88;21490;-85
2022/10/02 10:49:01;;;;;;;0.80;0.35;;;;;;;21.83;47.80;100284.98;1451721;89;21441;-86
2022/10/02 10:51:58;;;;;;;0.85;0.78;;;;;;;21.92;46.91;100293.05;1460963;89;21536;-84
2022/10/02 10:54:47;;;;;;;0.78;0.65;;;;;;;22.11;47.30;100279.58;1461025;89;21315;-87
2022/10/02 10:57:31;;;;;;;2.35;0.85;;;;;;;21.79;47.09;100278.41;1514325;87;21745;-85
2022/10/02 11:00:30;;;;;;;5.28;1.30;;;;;;;21.73;46.67;100275.27;1464883;87;21404;-84
2022/10/02 11:03:35;;;;;;;0.87;0.50;;;;;;;21.68;47.56;100268.38;1451514;87;21388;-85
2022/10/02 11:06:29;;;;;;;1.52;0.68;;;;;;;22.08;47.93;100266.84;1457486;87;21655;-86
2022/10/02 11:09:39;;;;;;;4.65;0.50;;;;;;;22.21;45.95;100267.74;1430009;87;21382;-86
2022/10/02 11:12:35;;;;;;;2.55;0.90;;;;;;;22.45;46.02;100265.98;1456117;87;21769;-84
2022/10/02 11:15:16;;;;;;;4.05;1.05;;;;;;;22.52;45.27;100256.72;1462513;87;21457;-84
2022/10/02 11:17:57;;;;;;;1.27;0.70;;;;;;;22.65;45.75;100256.24;1463540;87;21471;-85
2022/10/02 11:21:02;;;;;;;1.60;0.60;;;;;;;22.80;43.02;100249.87;1458274;87;21559;-85
2022/10/02 11:24:06;;;;;;;0.78;0.70;;;;;;;22.89;42.48;100249.81;1466108;87;22165;-86
2022/10/02 11:27:13;;;;;;;2.77;0.90;;;;;;;23.04;42.55;100253.97;1429828;90;21484;-85
2022/10/02 11:30:02;;;;;;;1.35;0.70;;;;;;;23.24;40.85;100247.69;1448685;89;21375;-85
2022/10/02 11:33:17;;;;;;;1.75;0.60;;;;;;;23.06;41.64;100251.86;1426758;90;21478;-88
2022/10/02 11:35:58;;;;;;;2.70;0.40;;;;;;;22.45;42.01;100255.19;1442296;90;21435;-86
2022/10/02 11:38:48;;;;;;;3.37;0.62;;;;;;;21.74;41.43;100252.66;1433714;88;22784;-90
2022/10/02 11:41:44;;;;;;;2.17;0.75;;;;;;;21.31;43.93;100249.47;1448205;88;21987;-88
2022/10/02 11:44:27;;;;;;;0.88;0.50;;;;;;;21.48;45.63;100244.36;1444225;88;22935;-89
2022/10/02 11:47:33;;;;;;;2.50;0.72;;;;;;;21.70;43.36;100241.52;1397505;89;22114;-90
2022/10/02 11:50:40;;;;;;;2.10;0.90;;;;;;;21.96;43.20;100236.33;1459463;89;21496;-90
2022/10/02 11:53:33;;;;;;;2.87;0.65;;;;;;;22.14;41.81;100241.39;1455011;88;21438;-86
2022/10/02 11:56:44;;;;;;;3.40;0.72;;;;;;;22.05;41.91;100237.66;1456326;89;22286;-87
2022/10/02 11:59:42;;;;;;;3.85;0.70;;;;;;;22.11;42.86;100228.38;1439215;90;22001;-90
2022/10/02 12:02:16;;;;;;;1.98;0.53;;;;;;;22.60;42.84;100225.09;1446005;89;21445;-91
2022/10/02 12:05:07;;;;;;;4.97;0.93;;;;;;;23.00;41.54;100225.81;1444852;89;21576;-90
2022/10/02 12:08:47;;;;;;;1.98;0.82;;;;;;;23.07;41.33;100215.17;1418257;88;21369;-92
2022/10/02 12:11:53;;;;;;;3.20;0.90;;;;;;;23.31;40.94;100224.10;1482936;90;21494;-91
2022/10/02 12:14:33;;;;;;;2.67;1.05;;;;;;;23.11;41.30;100216.91;1433735;88;21506;-93
2022/10/02 12:17:15;;;;;;;1.50;0.80;;;;;;;22.95;40.63;100205.73;1469497;88;21315;-92
2022/10/02 12:27:11;;;;;;;1.47;0.85;;;;;;;23.28;41.64;100205.67;1438887;90;21339;-90
2022/10/02 12:30:01;;;;;;;2.60;1.00;;;;;;;23.73;41.38;100190.15;1437995;90;22241;-90
2022/10/02 12:32:57;;;;;;;5.45;1.35;;;;;;;23.91;39.67;100192.38;1431477;89;21399;-90
2022/10/02 12:35:47;;;;;;;3.35;0.90;;;;;;;23.86;39.00;100188.52;1403902;92;21664;-90
2022/10/02 12:38:58;;;;;;;4.03;1.15;;;;;;;24.24;39.67;100187.59;1357911;95;21686;-90
2022/10/02 12:42:02;;;;;;;1.67;0.88;;;;;;;24.70;39.77;100181.08;1400392;92;21487;-90
2022/10/02 12:44:43;;;;;;;3.52;0.88;;;;;;;24.88;37.26;100181.89;1397509;93;21516;-91
2022/10/02 12:47:15;;;;;;;0.82;0.80;;;;;;;25.23;36.60;100183.48;1409141;92;21331;-92
2022/10/02 12:49:55;;;;;;;2.92;1.02;;;;;;;24.71;34.38;100174.59;1420330;92;21427;-96
2022/10/02 12:53:15;;;;;;;1.47;1.02;;;;;;;24.94;35.83;100175.48;1418244;92;21656;-95
2022/10/02 12:56:18;;;;;;;1.07;0.90;;;;;;;25.12;35.46;100172.50;1418559;92;21450;-92
2022/10/02 12:59:14;;;;;;;1.50;0.80;;;;;;;25.33;34.80;100167.39;1421447;92;21500;-93
2022/10/02 13:02:05;;;;;;;3.15;1.20;;;;;;;25.56;33.97;100176.61;1418823;91;21641;-91
2022/10/02 13:05:03;;;;;;;3.17;0.88;;;;;;;25.71;32.19;100166.48;1417923;91;22357;-92
2022/10/02 13:08:10;;;;;;;2.62;0.82;;;;;;;25.36;33.40;100165.53;1398515;92;21707;-93
2022/10/02 13:10:53;;;;;;;1.32;1.00;;;;;;;25.31;33.92;100161.39;1385280;93;21627;-94